Time;durP1;ratioP1;P1;durP2;ratioP2;P2;SDS_P1;SDS_P2;PMS_P1;PMS_P2;Temp;Humidity;BMP_temperature;BMP_pressure;BME280_temperature;BME280_humidity;BME280_pressure;Samples;Min_cycle;Max_cycle;Signal;HPM_P1;HPM_P2
2022/01/24 00:00:24;;;;;;;2.50;1.30;;;23.50;33.30;;;;;;5026452;28;20091;-40
2022/01/24 00:02:50;;;;;;;2.03;1.10;;;23.50;33.30;;;;;;5026555;28;20057;-41
2022/01/24 00:05:17;;;;;;;2.58;1.30;;;23.50;33.30;;;;;;5026334;28;20052;-41
2022/01/24 00:07:43;;;;;;;2.38;1.30;;;23.50;33.30;;;;;;5026750;28;20033;-41
2022/01/24 00:10:14;;;;;;;2.70;1.27;;;23.50;33.30;;;;;;5024896;28;20707;-41
2022/01/24 00:15:54;;;;;;;3.03;1.40;;;23.50;33.30;;;;;;5021774;28;20052;-41
2022/01/24 00:18:26;;;;;;;2.45;1.20;;;23.40;33.30;;;;;;5022026;28;20041;-41
2022/01/24 00:29:06;;;;;;;1.80;1.00;;;23.40;33.30;;;;;;5024230;28;20037;-41
2022/01/24 00:31:32;;;;;;;2.47;1.23;;;23.40;33.30;;;;;;5025345;28;20034;-41
2022/01/24 00:33:57;;;;;;;2.88;1.40;;;23.30;33.30;;;;;;5025246;28;20112;-41
2022/01/24 00:36:23;;;;;;;2.13;1.00;;;23.30;33.30;;;;;;5024892;28;20021;-41
2022/01/24 00:38:49;;;;;;;3.25;1.40;;;23.30;33.30;;;;;;5024381;28;20057;-41
2022/01/24 00:41:16;;;;;;;2.45;1.38;;;23.30;33.40;;;;;;5025967;28;20022;-41
2022/01/24 00:46:32;;;;;;;2.78;1.50;;;23.30;33.40;;;;;;5025754;28;20032;-42
2022/01/24 00:57:00;;;;;;;2.72;1.35;;;23.20;33.40;;;;;;5025592;28;20021;-41
2022/01/24 00:59:26;;;;;;;2.50;1.17;;;23.20;33.40;;;;;;5025497;28;20533;-41
2022/01/24 01:01:52;;;;;;;2.30;1.23;;;23.20;33.40;;;;;;5024750;28;20121;-40
2022/01/24 01:04:21;;;;;;;2.55;1.35;;;23.20;33.40;;;;;;5024343;28;20030;-40
2022/01/24 01:06:49;;;;;;;2.65;1.38;;;23.20;33.40;;;;;;5024721;28;20037;-41
2022/01/24 01:20:17;;;;;;;3.17;1.38;;;23.10;33.40;;;;;;5024622;28;20083;-41
2022/01/24 01:22:43;;;;;;;2.13;1.13;;;23.10;33.40;;;;;;5024743;28;20144;-41
2022/01/24 01:25:09;;;;;;;2.25;1.30;;;23.00;33.30;;;;;;5024234;28;20701;-41
2022/01/24 01:27:40;;;;;;;2.17;1.20;;;23.00;33.40;;;;;;5024903;28;20034;-40
2022/01/24 01:30:17;;;;;;;2.33;1.17;;;23.00;33.40;;;;;;5023506;28;20065;-41
2022/01/24 01:35:38;;;;;;;2.10;1.27;;;23.00;33.40;;;;;;5024244;28;20491;-41
2022/01/24 01:57:19;;;;;;;2.42;1.30;;;22.90;33.50;;;;;;5024474;28;20052;-41
2022/01/24 01:59:46;;;;;;;2.35;1.20;;;22.90;33.50;;;;;;5025296;28;20128;-41
2022/01/24 02:02:12;;;;;;;2.45;1.48;;;22.90;33.50;;;;;;5023897;28;20105;-41
2022/01/24 02:04:39;;;;;;;2.40;1.30;;;22.80;33.40;;;;;;5024154;28;20029;-41
2022/01/24 02:07:09;;;;;;;2.30;1.20;;;22.90;33.40;;;;;;5024250;28;20114;-41
2022/01/24 02:09:35;;;;;;;3.05;1.50;;;22.90;33.40;;;;;;5023456;28;20105;-41
2022/01/24 02:12:01;;;;;;;2.72;1.40;;;22.80;33.30;;;;;;5024087;28;20507;-41
2022/01/24 02:14:34;;;;;;;2.35;1.50;;;22.80;33.30;;;;;;5023793;28;20040;-41
2022/01/24 02:17:08;;;;;;;2.90;1.50;;;22.80;33.30;;;;;;5023845;28;20092;-41
2022/01/24 02:24:31;;;;;;;2.63;1.48;;;22.80;33.30;;;;;;5024073;28;20822;-41
2022/01/24 02:26:58;;;;;;;2.47;1.48;;;22.80;33.40;;;;;;5024586;28;20029;-41
2022/01/24 02:29:43;;;;;;;2.55;1.20;;;22.80;33.40;;;;;;5024221;28;20079;-42
2022/01/24 02:32:11;;;;;;;2.08;1.13;;;22.80;33.40;;;;;;5024101;28;20033;-41
2022/01/24 02:34:40;;;;;;;2.35;1.20;;;22.80;33.40;;;;;;5023995;28;20025;-41
2022/01/24 02:37:09;;;;;;;2.42;1.10;;;22.70;33.40;;;;;;5023797;28;20431;-40
2022/01/24 02:50:40;;;;;;;2.78;1.52;;;22.70;33.40;;;;;;5024217;28;20036;-41
2022/01/24 02:53:06;;;;;;;2.20;1.15;;;22.70;33.40;;;;;;5024065;28;20049;-41
2022/01/24 02:55:32;;;;;;;3.45;1.42;;;22.70;33.40;;;;;;5023940;28;20017;-41
2022/01/24 02:57:58;;;;;;;2.00;1.27;;;22.70;33.40;;;;;;5024091;28;20039;-41
2022/01/24 03:00:24;;;;;;;2.55;1.30;;;22.70;33.40;;;;;;5027906;28;20041;-41
2022/01/24 03:02:49;;;;;;;2.83;1.40;;;22.60;33.30;;;;;;5026504;28;20029;-41
2022/01/24 03:05:15;;;;;;;3.38;1.52;;;22.60;33.30;;;;;;5027601;28;20036;-41
2022/01/24 03:07:41;;;;;;;2.72;1.25;;;22.60;33.30;;;;;;5027455;28;20040;-41
2022/01/24 03:10:13;;;;;;;2.58;1.33;;;22.60;33.40;;;;;;5027523;28;20027;-41
2022/01/24 03:15:07;;;;;;;2.75;1.42;;;22.60;33.40;;;;;;5027624;28;20185;-41
2022/01/24 03:17:33;;;;;;;2.92;1.48;;;22.60;33.40;;;;;;5026634;28;20033;-41
2022/01/24 03:19:58;;;;;;;2.63;1.30;;;22.60;33.40;;;;;;5027755;28;20460;-40
2022/01/24 03:22:24;;;;;;;2.35;1.10;;;22.60;33.50;;;;;;5026463;28;20029;-41
2022/01/24 03:24:50;;;;;;;2.70;1.10;;;22.60;33.50;;;;;;5027549;28;20036;-40
2022/01/24 03:27:16;;;;;;;2.70;1.38;;;22.60;33.50;;;;;;5026603;28;20474;-41
2022/01/24 03:29:42;;;;;;;2.63;1.23;;;22.60;33.50;;;;;;5026746;28;20061;-41
2022/01/24 03:32:08;;;;;;;2.45;1.42;;;22.60;33.50;;;;;;5027543;28;20053;-42
2022/01/24 03:34:34;;;;;;;2.60;1.63;;;22.60;33.50;;;;;;5026048;28;20530;-41
2022/01/24 03:36:59;;;;;;;2.67;1.40;;;22.60;33.50;;;;;;5026870;28;20205;-41
2022/01/24 03:39:25;;;;;;;1.85;1.00;;;22.50;33.50;;;;;;5026497;28;20176;-41
2022/01/24 03:41:51;;;;;;;2.70;1.30;;;22.60;33.40;;;;;;5026872;28;20104;-41
2022/01/24 03:44:18;;;;;;;2.08;1.15;;;22.50;33.40;;;;;;5025069;28;20176;-41
2022/01/24 03:49:45;;;;;;;2.47;1.30;;;22.50;33.30;;;;;;5024788;28;20064;-41
2022/01/24 03:52:19;;;;;;;1.80;1.05;;;22.50;33.40;;;;;;5027310;28;20025;-41
2022/01/24 03:54:46;;;;;;;2.95;1.50;;;22.50;33.30;;;;;;5026677;28;20037;-41
2022/01/24 03:57:14;;;;;;;1.83;1.02;;;22.50;33.40;;;;;;5025684;28;20068;-41
2022/01/24 03:59:41;;;;;;;2.65;1.13;;;22.40;33.30;;;;;;5026486;28;20095;-41
2022/01/24 04:02:08;;;;;;;2.92;1.42;;;22.50;33.50;;;;;;5026642;28;20037;-42
2022/01/24 04:04:34;;;;;;;2.78;1.45;;;22.50;33.50;;;;;;5026546;28;20519;-41
2022/01/24 04:07:00;;;;;;;2.55;1.10;;;22.50;33.50;;;;;;5024470;28;20500;-41
2022/01/24 04:09:26;;;;;;;2.05;1.00;;;22.50;33.50;;;;;;5025859;28;20029;-41
2022/01/24 04:11:55;;;;;;;2.50;1.30;;;22.50;33.50;;;;;;5026058;28;20033;-41
2022/01/24 04:15:08;;;;;;;2.63;1.52;;;22.50;33.50;;;;;;5026006;28;20037;-41
2022/01/24 04:22:28;;;;;;;2.55;1.30;;;22.40;33.40;;;;;;5025918;28;20075;-41
2022/01/24 04:25:02;;;;;;;2.83;1.40;;;22.40;33.40;;;;;;5025707;28;20427;-41
2022/01/24 04:27:29;;;;;;;2.25;1.33;;;22.40;33.50;;;;;;5025644;28;20021;-41
2022/01/24 04:29:55;;;;;;;2.42;1.20;;;22.40;33.40;;;;;;5025495;28;20104;-41
2022/01/24 04:32:22;;;;;;;2.70;1.30;;;22.40;33.40;;;;;;5025474;28;20025;-41
2022/01/24 04:34:48;;;;;;;2.67;1.30;;;22.40;33.40;;;;;;5026289;28;20112;-41
2022/01/24 04:37:14;;;;;;;3.10;1.30;;;22.30;33.30;;;;;;5025899;28;20311;-41
2022/01/24 04:39:39;;;;;;;2.53;1.20;;;22.30;33.40;;;;;;5026085;28;20034;-41
2022/01/24 04:42:10;;;;;;;2.47;1.40;;;22.30;33.40;;;;;;5026687;28;20036;-41
2022/01/24 04:53:06;;;;;;;3.35;1.30;;;22.30;33.40;;;;;;5025922;28;20022;-42
2022/01/24 04:55:31;;;;;;;2.17;1.17;;;22.30;33.50;;;;;;5024284;28;20417;-41
2022/01/24 04:57:57;;;;;;;2.50;1.40;;;22.30;33.50;;;;;;5025387;28;20018;-42
2022/01/24 05:00:23;;;;;;;2.53;1.20;;;22.30;33.50;;;;;;5024863;28;20072;-41
2022/01/24 05:02:48;;;;;;;2.47;1.10;;;22.30;33.50;;;;;;5010434;28;20036;-41
2022/01/24 05:05:18;;;;;;;2.67;1.35;;;22.30;33.60;;;;;;5025428;28;20075;-40
2022/01/24 05:07:44;;;;;;;2.35;1.20;;;22.30;33.50;;;;;;5022026;28;20087;-41
2022/01/24 05:10:21;;;;;;;2.10;1.10;;;22.30;33.50;;;;;;5024995;28;20385;-40
2022/01/24 05:23:35;;;;;;;2.20;1.10;;;22.30;34.20;;;;;;5024083;28;20025;-41
2022/01/24 05:26:03;;;;;;;3.85;1.92;;;22.30;34.40;;;;;;5024079;28;20033;-41
2022/01/24 05:28:30;;;;;;;9.73;3.47;;;22.30;34.70;;;;;;5022575;28;20512;-41
2022/01/24 05:30:58;;;;;;;18.52;6.70;;;22.40;35.20;;;;;;5023963;28;20504;-40
2022/01/24 05:33:24;;;;;;;50.17;15.23;;;22.40;35.30;;;;;;5023614;28;20132;-41
2022/01/24 05:35:50;;;;;;;57.95;18.42;;;22.50;35.80;;;;;;5022368;28;20241;-41
2022/01/24 05:38:16;;;;;;;53.83;18.67;;;22.50;35.70;;;;;;5022440;28;20079;-41
2022/01/24 05:40:43;;;;;;;44.63;17.55;;;22.60;35.70;;;;;;5023511;28;20482;-41
2022/01/24 05:43:09;;;;;;;55.17;17.95;;;22.70;35.50;;;;;;5021651;28;20025;-41
2022/01/24 05:45:36;;;;;;;43.50;16.58;;;22.70;35.30;;;;;;5022170;28;20029;-41
2022/01/24 05:48:02;;;;;;;42.40;16.73;;;22.80;35.10;;;;;;5022053;28;20036;-41
2022/01/24 05:50:28;;;;;;;36.80;15.95;;;22.90;35.10;;;;;;5024872;28;20041;-41
2022/01/24 05:52:54;;;;;;;40.70;16.55;;;22.90;34.90;;;;;;5024395;28;20028;-41
2022/01/24 05:55:20;;;;;;;41.38;15.00;;;23.00;34.70;;;;;;5024641;28;20036;-41
2022/01/24 05:57:46;;;;;;;34.17;13.38;;;23.10;34.60;;;;;;5024637;28;20076;-41
2022/01/24 06:00:14;;;;;;;32.92;12.57;;;23.20;34.40;;;;;;5024567;28;20567;-41
2022/01/24 06:02:40;;;;;;;28.73;12.25;;;23.20;34.30;;;;;;5023408;28;20030;-41
2022/01/24 06:05:07;;;;;;;29.63;12.35;;;23.30;34.20;;;;;;5024821;28;20025;-41
2022/01/24 06:07:33;;;;;;;26.90;11.20;;;23.30;34.10;;;;;;5022374;28;20476;-41
2022/01/24 06:09:59;;;;;;;24.60;11.60;;;23.40;34.00;;;;;;5023464;28;20029;-41
2022/01/24 06:12:25;;;;;;;21.25;9.77;;;23.50;34.00;;;;;;5023151;28;20022;-41
2022/01/24 06:14:51;;;;;;;23.23;9.65;;;23.50;33.90;;;;;;5021921;28;20033;-41
2022/01/24 06:17:17;;;;;;;19.40;8.00;;;23.60;33.70;;;;;;5023802;28;20026;-42
2022/01/24 06:19:44;;;;;;;19.08;7.40;;;23.60;33.50;;;;;;5023868;28;20045;-40
2022/01/24 06:22:10;;;;;;;20.25;8.02;;;23.70;33.40;;;;;;5024494;28;20433;-42
2022/01/24 06:24:36;;;;;;;19.85;7.57;;;23.70;33.40;;;;;;5022994;28;20056;-41
2022/01/24 06:27:01;;;;;;;14.68;6.97;;;23.80;33.30;;;;;;5023519;28;20452;-41
2022/01/24 06:29:27;;;;;;;18.67;7.72;;;23.80;33.20;;;;;;5024077;28;20033;-42
2022/01/24 06:31:53;;;;;;;14.52;6.88;;;23.90;33.20;;;;;;5024888;28;20057;-41
2022/01/24 06:34:18;;;;;;;15.23;6.55;;;24.00;33.70;;;;;;5027337;28;20152;-41
2022/01/24 06:36:44;;;;;;;12.77;6.22;;;24.00;33.00;;;;;;5027775;28;20025;-41
2022/01/24 06:39:12;;;;;;;12.98;5.43;;;24.10;33.00;;;;;;5027617;28;20061;-41
2022/01/24 06:41:38;;;;;;;12.18;6.25;;;24.20;32.90;;;;;;5027476;28;20030;-41
2022/01/24 06:44:04;;;;;;;11.43;5.85;;;24.20;32.80;;;;;;5028193;28;20328;-41
2022/01/24 06:46:30;;;;;;;13.13;5.35;;;24.20;32.70;;;;;;5026589;28;20022;-41
2022/01/24 06:48:56;;;;;;;13.25;5.88;;;24.30;32.70;;;;;;5027283;28;20033;-41
2022/01/24 06:51:23;;;;;;;10.77;4.90;;;24.30;32.60;;;;;;5027691;28;20454;-42
2022/01/24 06:53:49;;;;;;;12.95;6.07;;;24.30;32.50;;;;;;5027404;28;20025;-41
2022/01/24 06:56:15;;;;;;;12.23;4.80;;;24.40;32.40;;;;;;5027896;28;20664;-41
2022/01/24 06:58:42;;;;;;;9.82;4.70;;;24.40;32.30;;;;;;5027747;28;20029;-40
2022/01/24 07:01:08;;;;;;;10.57;4.25;;;24.40;32.90;;;;;;5027590;28;20504;-41
2022/01/24 07:03:34;;;;;;;8.45;3.80;;;24.50;32.30;;;;;;5025480;28;20033;-41
2022/01/24 07:06:00;;;;;;;8.93;3.90;;;24.50;32.20;;;;;;5027214;28;20032;-41
2022/01/24 07:08:25;;;;;;;6.90;3.53;;;24.50;32.10;;;;;;5027724;28;20030;-41
2022/01/24 07:10:52;;;;;;;6.22;3.65;;;24.50;32.10;;;;;;5026563;28;20114;-42
2022/01/24 07:13:20;;;;;;;8.82;4.13;;;24.50;32.10;;;;;;5027142;28;20049;-42
2022/01/24 07:15:51;;;;;;;6.30;3.65;;;24.60;32.00;;;;;;5027296;28;20018;-42
2022/01/24 07:20:42;;;;;;;7.47;3.42;;;24.60;31.70;;;;;;5026389;28;20485;-41
2022/01/24 07:23:08;;;;;;;7.32;3.75;;;24.70;31.80;;;;;;5027010;28;20025;-41
2022/01/24 07:25:34;;;;;;;7.28;3.28;;;24.70;31.60;;;;;;5026395;28;20100;-41
2022/01/24 07:27:59;;;;;;;6.85;2.95;;;24.70;31.50;;;;;;5026221;28;20033;-41
2022/01/24 07:30:25;;;;;;;5.72;2.90;;;24.80;31.50;;;;;;5026792;28;20115;-41
2022/01/24 07:32:52;;;;;;;7.55;3.80;;;24.80;31.60;;;;;;5025083;28;20075;-41
2022/01/24 07:35:17;;;;;;;6.32;2.97;;;24.90;31.80;;;;;;5024292;28;20029;-42
2022/01/24 07:37:43;;;;;;;5.88;2.22;;;24.90;31.70;;;;;;5013890;28;20492;-42
2022/01/24 07:40:10;;;;;;;6.70;3.03;;;24.90;31.60;;;;;;5005462;28;20030;-42
2022/01/24 07:42:58;;;;;;;5.55;2.92;;;25.00;31.70;;;;;;5025845;28;20424;-42
2022/01/24 07:45:26;;;;;;;7.38;3.00;;;25.00;31.70;;;;;;5025263;28;20563;-42
2022/01/24 07:47:52;;;;;;;6.20;2.38;;;25.00;31.70;;;;;;5023318;28;20026;-41
2022/01/24 07:50:22;;;;;;;5.68;2.90;;;25.00;31.50;;;;;;5024675;28;20068;-42
2022/01/24 07:52:47;;;;;;;5.18;2.53;;;25.10;31.40;;;;;;5025315;28;20030;-41
2022/01/24 07:55:13;;;;;;;5.82;2.20;;;25.10;31.30;;;;;;5026555;28;20512;-41
2022/01/24 07:57:39;;;;;;;5.68;2.72;;;25.10;31.40;;;;;;5026511;28;20254;-42
2022/01/24 08:00:06;;;;;;;4.38;2.20;;;25.20;31.30;;;;;;5026723;28;20033;-42
2022/01/24 08:02:33;;;;;;;5.00;2.50;;;25.20;31.20;;;;;;5025981;28;20082;-41
2022/01/24 08:04:59;;;;;;;4.28;2.00;;;25.20;31.10;;;;;;5026915;28;20029;-41
2022/01/24 08:07:25;;;;;;;4.22;2.33;;;25.30;31.10;;;;;;5026777;28;20037;-41
2022/01/24 08:09:50;;;;;;;4.43;2.17;;;25.30;31.10;;;;;;5027207;28;20064;-41
2022/01/24 08:12:17;;;;;;;4.50;2.25;;;25.30;31.00;;;;;;5027080;28;20030;-42
2022/01/24 08:14:43;;;;;;;3.90;2.05;;;25.30;31.00;;;;;;5026663;28;20129;-42
2022/01/24 08:17:09;;;;;;;4.63;2.15;;;25.40;30.90;;;;;;5026491;28;20089;-42
2022/01/24 08:19:35;;;;;;;4.95;2.40;;;25.30;30.90;;;;;;5026202;28;20041;-42
2022/01/24 08:22:01;;;;;;;3.70;2.00;;;25.40;30.80;;;;;;5026558;28;20088;-42
2022/01/24 08:24:27;;;;;;;5.07;2.22;;;25.40;30.80;;;;;;5026511;28;20057;-41
2022/01/24 08:26:54;;;;;;;3.60;1.75;;;25.40;30.70;;;;;;5026246;28;20037;-43
2022/01/24 08:29:20;;;;;;;4.55;1.75;;;25.40;30.70;;;;;;5026340;28;20036;-42
2022/01/24 08:31:45;;;;;;;4.47;2.03;;;25.40;30.70;;;;;;5026639;28;20026;-42
2022/01/24 08:34:11;;;;;;;4.72;2.40;;;25.50;30.70;;;;;;5025059;28;20086;-42
2022/01/24 08:36:37;;;;;;;5.22;2.35;;;25.50;30.60;;;;;;5026059;28;20034;-42
2022/01/24 08:39:08;;;;;;;4.25;2.10;;;25.50;30.50;;;;;;5025776;28;20022;-41
2022/01/24 08:42:27;;;;;;;5.30;2.13;;;25.50;30.60;;;;;;5026285;28;20394;-42
2022/01/24 08:47:09;;;;;;;3.45;1.70;;;25.50;30.50;;;;;;5025672;28;20029;-42
2022/01/24 08:49:34;;;;;;;4.88;2.20;;;25.50;30.50;;;;;;5025809;28;20029;-42
2022/01/24 08:52:00;;;;;;;3.33;2.00;;;25.50;30.60;;;;;;5025518;28;20041;-41
2022/01/24 08:54:27;;;;;;;4.25;1.75;;;25.50;30.50;;;;;;5025475;28;20672;-41
2022/01/24 08:56:53;;;;;;;4.15;2.00;;;25.50;30.50;;;;;;5024359;28;20059;-42
2022/01/24 08:59:21;;;;;;;4.15;2.15;;;25.50;30.40;;;;;;5025164;28;20109;-42
2022/01/24 09:01:47;;;;;;;2.80;1.65;;;25.50;30.50;;;;;;5025951;28;20040;-42
2022/01/24 09:04:13;;;;;;;4.05;1.80;;;25.50;30.40;;;;;;5024621;28;20425;-41
2022/01/24 09:06:39;;;;;;;3.58;1.80;;;25.60;30.40;;;;;;5025435;28;20040;-42
2022/01/24 09:09:05;;;;;;;3.35;1.88;;;25.60;30.30;;;;;;5025564;28;20087;-42
2022/01/24 09:11:35;;;;;;;4.93;2.13;;;25.60;30.30;;;;;;5025599;28;20022;-41
2022/01/24 09:14:04;;;;;;;4.10;1.92;;;25.60;30.30;;;;;;5025664;28;20152;-41
2022/01/24 09:16:29;;;;;;;4.05;2.08;;;25.60;30.30;;;;;;5025302;28;20025;-41
2022/01/24 09:18:55;;;;;;;3.67;2.15;;;25.60;30.30;;;;;;5024974;28;20533;-41
2022/01/24 09:21:22;;;;;;;4.05;2.05;;;25.60;30.20;;;;;;5025625;28;20065;-41
2022/01/24 09:23:48;;;;;;;4.00;1.95;;;25.60;30.20;;;;;;5025100;28;20107;-41
2022/01/24 09:26:15;;;;;;;3.55;1.73;;;25.60;30.20;;;;;;5024825;28;20474;-42
2022/01/24 09:28:40;;;;;;;3.55;1.75;;;25.60;30.30;;;;;;5024096;28;20029;-41
2022/01/24 09:31:06;;;;;;;3.45;1.92;;;25.60;30.20;;;;;;5024881;28;20083;-41
2022/01/24 09:33:33;;;;;;;4.28;1.95;;;25.60;30.20;;;;;;5025045;28;20025;-41
2022/01/24 09:36:00;;;;;;;3.33;1.60;;;25.60;30.30;;;;;;5024812;28;20025;-41
2022/01/24 09:38:30;;;;;;;3.05;1.63;;;25.60;30.20;;;;;;5025024;28;20049;-41
2022/01/24 09:40:57;;;;;;;3.35;2.05;;;25.60;30.20;;;;;;5024809;28;20318;-41
2022/01/24 09:43:22;;;;;;;3.80;1.88;;;25.60;30.10;;;;;;5025019;28;20089;-41
2022/01/24 09:45:48;;;;;;;3.53;2.00;;;25.60;30.10;;;;;;5024890;28;20219;-41
2022/01/24 09:48:16;;;;;;;2.92;1.42;;;25.60;30.10;;;;;;5024551;28;20041;-42
2022/01/24 09:50:43;;;;;;;3.88;2.10;;;25.70;30.10;;;;;;5024893;28;20144;-41
2022/01/24 09:53:09;;;;;;;3.65;1.75;;;25.60;30.10;;;;;;5023562;28;20030;-41
2022/01/24 09:55:34;;;;;;;3.10;1.65;;;25.70;30.10;;;;;;5024921;28;20399;-41
2022/01/24 09:58:00;;;;;;;3.70;1.73;;;25.60;30.10;;;;;;5024719;28;20188;-42
2022/01/24 10:00:29;;;;;;;3.17;1.95;;;25.60;30.10;;;;;;5024235;28;20726;-41
2022/01/24 10:02:56;;;;;;;3.97;2.00;;;25.60;30.10;;;;;;5024742;28;20029;-42
2022/01/24 10:05:23;;;;;;;3.08;1.80;;;25.60;30.10;;;;;;5024626;28;20326;-42
2022/01/24 10:07:58;;;;;;;4.05;2.00;;;25.70;30.10;;;;;;5024046;28;20037;-42
2022/01/24 10:10:47;;;;;;;3.33;1.88;;;25.60;30.10;;;;;;5024868;28;20056;-42
2022/01/24 10:16:46;;;;;;;3.88;2.00;;;25.60;30.10;;;;;;5004786;28;20029;-41
2022/01/24 10:19:17;;;;;;;3.33;1.83;;;25.60;30.10;;;;;;5018726;28;20064;-42
2022/01/24 10:22:00;;;;;;;3.30;1.80;;;25.60;30.10;;;;;;5024950;28;20057;-41
2022/01/24 10:24:44;;;;;;;3.47;2.03;;;25.60;30.10;;;;;;5024439;28;20029;-42
2022/01/24 10:27:23;;;;;;;3.30;1.83;;;25.60;30.10;;;;;;5024184;28;20056;-41
2022/01/24 10:29:59;;;;;;;3.95;2.05;;;25.60;30.10;;;;;;5024641;28;20080;-41
2022/01/24 10:32:37;;;;;;;4.35;2.00;;;25.60;30.10;;;;;;5006643;28;20028;-41
2022/01/24 10:35:38;;;;;;;4.28;2.17;;;25.60;30.10;;;;;;5023871;28;20025;-41
2022/01/24 10:38:40;;;;;;;3.45;1.90;;;25.60;30.10;;;;;;5022888;28;20037;-42
2022/01/24 10:41:49;;;;;;;3.83;1.80;;;25.60;30.10;;;;;;5024448;28;20215;-42
2022/01/24 10:44:12;;;;;;;3.20;1.80;;;25.60;30.10;;;;;;5024422;28;20556;-41
2022/01/24 10:46:38;;;;;;;3.90;2.13;;;25.70;30.70;;;;;;5024102;28;20040;-42
2022/01/24 10:49:10;;;;;;;3.60;2.00;;;25.60;30.10;;;;;;5023667;28;20203;-41
2022/01/24 10:51:44;;;;;;;3.65;1.90;;;25.60;30.10;;;;;;5024010;28;20111;-41
2022/01/24 10:54:12;;;;;;;4.10;2.00;;;25.60;30.10;;;;;;5024221;28;20478;-41
2022/01/24 10:56:43;;;;;;;3.60;2.20;;;25.60;30.10;;;;;;5024088;28;20033;-42
2022/01/24 10:59:21;;;;;;;3.92;1.90;;;25.70;30.10;;;;;;5023038;28;20026;-41
2022/01/24 11:01:53;;;;;;;3.13;1.65;;;25.60;30.10;;;;;;5024543;28;20029;-42
2022/01/24 11:04:21;;;;;;;3.58;1.88;;;25.60;30.10;;;;;;5023901;28;20154;-41
2022/01/24 11:06:51;;;;;;;3.95;2.05;;;25.60;30.10;;;;;;5022688;28;20537;-42
2022/01/24 11:09:26;;;;;;;3.10;1.63;;;25.60;30.10;;;;;;5022734;28;20037;-41
2022/01/24 11:12:10;;;;;;;2.95;1.67;;;25.60;30.10;;;;;;5024154;28;20061;-41
2022/01/24 11:14:37;;;;;;;3.67;2.13;;;25.60;30.10;;;;;;5024139;28;20600;-41
2022/01/24 11:17:05;;;;;;;3.78;2.08;;;25.60;30.00;;;;;;5024019;28;20060;-42
2022/01/24 11:22:05;;;;;;;4.68;2.17;;;25.70;30.00;;;;;;5027734;28;20083;-41
2022/01/24 11:24:46;;;;;;;3.63;2.08;;;25.60;30.10;;;;;;5027635;28;20059;-41
2022/01/24 11:27:12;;;;;;;3.50;1.92;;;25.70;30.00;;;;;;5026984;28;20036;-41
2022/01/24 11:29:38;;;;;;;4.20;2.25;;;25.60;30.00;;;;;;5027473;28;20055;-41
2022/01/24 11:32:38;;;;;;;3.30;1.95;;;25.60;30.00;;;;;;5027393;28;20033;-42
2022/01/24 11:35:04;;;;;;;3.40;1.90;;;25.60;30.00;;;;;;5026080;28;20052;-41
2022/01/24 11:37:41;;;;;;;3.97;2.40;;;25.60;30.00;;;;;;5027048;28;20100;-41
2022/01/24 11:40:19;;;;;;;4.25;2.47;;;25.60;30.10;;;;;;5027422;28;20386;-42
2022/01/24 11:42:47;;;;;;;3.97;2.15;;;25.60;30.10;;;;;;5026281;28;20041;-41
2022/01/24 11:45:18;;;;;;;3.30;1.92;;;25.60;30.10;;;;;;5027206;28;20437;-41
2022/01/24 11:47:47;;;;;;;3.95;2.35;;;25.60;30.10;;;;;;5027003;28;20029;-41
2022/01/24 11:50:27;;;;;;;3.53;2.20;;;25.60;30.10;;;;;;5026930;28;20061;-42
2022/01/24 11:52:55;;;;;;;3.53;2.22;;;25.60;30.10;;;;;;5027484;28;20087;-41
2022/01/24 11:55:36;;;;;;;4.00;2.03;;;25.60;30.10;;;;;;5026859;28;20497;-42
2022/01/24 11:58:05;;;;;;;4.85;2.00;;;25.60;30.10;;;;;;5026458;28;20037;-41
2022/01/24 12:00:40;;;;;;;4.28;2.53;;;25.60;30.10;;;;;;5026512;28;20739;-42
2022/01/24 12:03:23;;;;;;;3.67;2.00;;;25.60;30.10;;;;;;5026989;28;20029;-42
2022/01/24 12:05:51;;;;;;;3.78;2.15;;;25.60;30.10;;;;;;5026123;28;20466;-41
2022/01/24 12:08:38;;;;;;;4.88;2.83;;;25.60;30.10;;;;;;5025142;28;20132;-42
2022/01/24 12:11:26;;;;;;;3.50;1.88;;;25.60;30.10;;;;;;5026689;28;20401;-42
2022/01/24 12:14:00;;;;;;;4.68;2.15;;;25.60;30.10;;;;;;5026715;28;20030;-41
2022/01/24 12:16:43;;;;;;;3.45;2.20;;;25.60;30.00;;;;;;5026493;28;20022;-41
2022/01/24 12:19:10;;;;;;;4.22;2.17;;;25.60;30.00;;;;;;5026065;28;20116;-41
2022/01/24 12:21:41;;;;;;;4.03;2.40;;;25.60;30.10;;;;;;5026796;28;20029;-41
2022/01/24 12:24:08;;;;;;;3.42;1.98;;;25.60;30.00;;;;;;5026486;28;20116;-41
2022/01/24 12:26:55;;;;;;;4.30;2.53;;;25.60;30.10;;;;;;5026232;28;20498;-42
2022/01/24 12:29:27;;;;;;;3.95;2.38;;;25.60;30.00;;;;;;5021863;28;20041;-41
2022/01/24 12:31:58;;;;;;;3.50;2.10;;;25.60;30.00;;;;;;5026170;28;20029;-42
2022/01/24 12:34:31;;;;;;;3.97;2.30;;;25.60;30.10;;;;;;5026347;28;20065;-42
2022/01/24 12:37:00;;;;;;;;;;;25.60;30.10;;;;;;5026761;28;20507;-42
2022/01/24 12:39:52;;;;;;;3.50;2.10;;;25.60;30.10;;;;;;5024630;28;20397;-41
2022/01/24 12:42:33;;;;;;;4.10;2.63;;;25.50;30.10;;;;;;5025650;28;20040;-42
2022/01/24 12:47:43;;;;;;;3.70;2.38;;;25.50;30.20;;;;;;5025190;28;20029;-42
2022/01/24 12:50:10;;;;;;;4.10;2.42;;;25.50;30.20;;;;;;5025448;28;20454;-42
2022/01/24 12:52:37;;;;;;;4.07;2.70;;;25.50;30.10;;;;;;5026031;28;20100;-41
2022/01/24 12:55:03;;;;;;;4.57;2.35;;;25.50;30.10;;;;;;5025258;28;20078;-41
2022/01/24 12:57:30;;;;;;;4.82;2.70;;;25.50;30.10;;;;;;5025299;28;20184;-41
2022/01/24 13:00:07;;;;;;;4.05;2.72;;;25.50;30.00;;;;;;5025817;28;20048;-41
2022/01/24 13:02:34;;;;;;;4.85;2.90;;;25.40;30.00;;;;;;5024386;28;20673;-41
2022/01/24 13:05:05;;;;;;;4.78;3.00;;;25.40;30.00;;;;;;5024939;28;20172;-41
2022/01/24 13:07:31;;;;;;;5.03;3.13;;;25.40;30.10;;;;;;5025186;28;20044;-41
2022/01/24 13:10:10;;;;;;;4.72;3.05;;;25.40;30.00;;;;;;5025566;28;20037;-42
2022/01/24 13:12:37;;;;;;;4.70;3.03;;;25.40;30.10;;;;;;5025464;28;20025;-41
2022/01/24 13:15:06;;;;;;;4.28;2.58;;;25.40;30.10;;;;;;5025550;28;20026;-41
2022/01/24 13:23:08;;;;;;;4.15;2.45;;;25.40;30.10;;;;;;5025406;28;20033;-42
2022/01/24 13:25:37;;;;;;;5.20;3.30;;;25.40;30.10;;;;;;5025518;28;20508;-42
2022/01/24 13:28:13;;;;;;;4.53;2.83;;;25.40;30.10;;;;;;5023973;28;20563;-42
2022/01/24 13:30:42;;;;;;;4.13;2.72;;;25.40;30.20;;;;;;5024417;28;20493;-41
2022/01/24 13:33:12;;;;;;;3.90;2.65;;;25.40;30.10;;;;;;5024622;28;20072;-45
2022/01/24 13:35:41;;;;;;;5.07;3.08;;;25.40;30.10;;;;;;5020919;28;20032;-41
2022/01/24 13:38:19;;;;;;;4.78;2.88;;;25.40;30.20;;;;;;5024024;28;20472;-42
2022/01/24 13:40:59;;;;;;;4.68;2.92;;;25.40;30.10;;;;;;5025075;28;20025;-42
2022/01/24 13:44:04;;;;;;;5.35;3.00;;;25.40;30.30;;;;;;5024255;28;20219;-42
2022/01/24 13:46:41;;;;;;;4.85;2.83;;;25.40;30.30;;;;;;5000560;28;20509;-41
2022/01/24 13:49:12;;;;;;;5.35;3.60;;;25.40;30.40;;;;;;5006893;28;20026;-43
2022/01/24 13:51:45;;;;;;;4.38;2.78;;;25.40;30.40;;;;;;5023846;28;20053;-41
2022/01/24 13:54:29;;;;;;;6.10;3.40;;;25.50;30.60;;;;;;5023834;28;20527;-42
2022/01/24 13:57:04;;;;;;;5.13;3.55;;;25.50;30.60;;;;;;5023883;28;20034;-41
2022/01/24 13:59:32;;;;;;;5.13;3.55;;;25.50;30.60;;;;;;5023960;28;20490;-42
2022/01/24 14:02:00;;;;;;;5.25;3.33;;;25.50;30.60;;;;;;5023890;28;20648;-41
2022/01/24 14:04:43;;;;;;;5.60;3.55;;;25.50;30.50;;;;;;5023679;28;20034;-42
2022/01/24 14:07:20;;;;;;;4.63;3.35;;;25.50;30.50;;;;;;5009558;28;20395;-42
2022/01/24 14:10:07;;;;;;;4.55;3.20;;;25.50;30.40;;;;;;5023513;28;20025;-41
2022/01/24 14:12:53;;;;;;;5.35;3.22;;;25.50;30.40;;;;;;5023977;28;20029;-42
2022/01/24 14:20:36;;;;;;;4.97;2.83;;;25.60;30.20;;;;;;5023854;28;20030;-41
2022/01/24 14:23:03;;;;;;;4.75;3.20;;;25.60;30.10;;;;;;5024477;28;20026;-41
2022/01/24 14:25:31;;;;;;;5.13;3.47;;;25.60;30.20;;;;;;5024350;28;20105;-42
2022/01/24 14:27:59;;;;;;;5.70;4.00;;;25.60;30.10;;;;;;5023894;28;20029;-41
2022/01/24 14:30:31;;;;;;;5.80;3.13;;;25.60;30.20;;;;;;5023992;28;20045;-41
2022/01/24 14:33:16;;;;;;;4.93;3.38;;;25.60;30.20;;;;;;5024356;28;20036;-41
2022/01/24 14:35:59;;;;;;;4.78;3.10;;;25.60;30.20;;;;;;5017073;28;20057;-42
2022/01/24 14:38:40;;;;;;;5.05;3.17;;;25.60;30.20;;;;;;5004365;28;20057;-41
2022/01/24 14:41:18;;;;;;;5.63;3.67;;;25.60;30.20;;;;;;5005031;28;20129;-41
2022/01/24 14:46:36;;;;;;;5.60;3.70;;;25.60;30.10;;;;;;5023908;28;20246;-40
2022/01/24 14:49:05;;;;;;;4.97;3.45;;;25.60;30.20;;;;;;5023674;28;20037;-41
2022/01/24 14:51:34;;;;;;;4.88;3.42;;;25.60;30.10;;;;;;5024216;28;20599;-41
2022/01/24 14:54:03;;;;;;;5.63;3.85;;;25.60;30.10;;;;;;5023216;28;20028;-42
2022/01/24 14:56:30;;;;;;;5.70;3.95;;;25.60;30.10;;;;;;5019166;28;20614;-42
2022/01/24 14:58:57;;;;;;;5.07;3.33;;;25.60;30.20;;;;;;5023774;28;20563;-41
2022/01/24 15:01:23;;;;;;;4.93;3.83;;;25.60;30.10;;;;;;5026125;28;20026;-42
2022/01/24 15:03:50;;;;;;;5.00;3.08;;;25.60;30.10;;;;;;5016889;28;20028;-42
2022/01/24 15:06:18;;;;;;;4.65;3.22;;;25.60;30.10;;;;;;5027222;28;20018;-41